Latest Weather Observations for Orange Airport

IDN60801

Issued at 8:33 am EDT Saturday 7 March 2015 (issued every 30 minutes, with the page automatically refreshed every 10 minutes)

About weather observations | Map of weather stations | Latest weather observations for NSW | Other Formats
Station Details ID: 063303 Name: ORANGE AIRPORT AWS Lat: -33.38 Lon: 149.13 Height: 944.65 m
Data from the previous 72 hours. | See also: Recent months at Orange Airport
Date/Time
EDT
Temp
°C
App
Temp
°C
Dew
Point
Rel
Hum
%
Delta-T
°C
Wind Press
QNH
hPa
Press
MSL
hPa
Rain
since 9 am
mm
Dir
 
Spd
km/h
Gust
km/h
Spd
kts
Gust
kts
07/08:30am 12.2 11.7 9.2 82 1.6 SW 2 7 1 4 1015.3 1011.8 0.0
07/08:00am 9.8 7.8 8.7 93 0.6 WSW 9 13 5 7 1015.0 1011.5 0.0
07/07:30am 6.3 5.2 5.3 93 0.5 CALM 0 0 0 0 1014.1 1010.6 0.0
07/07:00am 4.7 2.0 3.7 93 0.4 E 7 9 4 5 1014.0 1010.5 0.0
07/06:30am 5.4 3.4 4.4 93 0.5 SE 4 7 2 4 1014.0 1010.5 0.0
07/06:00am 4.4 1.8 3.4 93 0.4 SSE 6 7 3 4 1013.7 1010.1 0.0
07/05:30am 5.6 3.3 4.6 93 0.5 SSE 6 7 3 4 1013.6 1010.0 0.0
07/05:00am 7.0 4.4 5.9 93 0.5 S 9 9 5 5 1013.3 1009.8 0.0
07/04:30am 6.4 3.2 5.2 92 0.6 S 11 13 6 7 1013.0 1009.5 0.0
07/04:00am 7.3 4.2 5.4 88 0.9 SSE 11 13 6 7 1013.2 1009.7 0.0
07/03:30am 10.0 6.3 8.1 88 1.0 SSW 17 20 9 11 1013.0 1009.5 0.0
07/03:00am 6.0 3.5 5.0 93 0.5 S 7 11 4 6 1013.2 1009.7 0.0
07/02:30am 6.9 5.9 5.5 91 0.7 CALM 0 0 0 0 1013.6 1010.0 0.0
07/02:00am 7.3 5.1 5.3 87 0.9 ENE 6 9 3 5 1013.6 1010.0 0.0
07/01:30am 8.7 5.6 5.6 81 1.5 S 11 15 6 8 1013.2 1009.7 0.0
07/01:00am 10.5 7.0 7.0 79 1.8 S 15 20 8 11 1013.2 1009.7 0.0
07/12:30am 11.4 8.3 7.3 76 2.1 SSW 13 19 7 10 1013.4 1009.9 0.0
07/12:00am 12.3 8.9 7.6 73 2.4 SSW 15 20 8 11 1013.2 1009.7 0.0
 
Date/Time
EDT
Temp
°C
App
Temp
°C
Dew
Point
Rel
Hum
%
Delta-T
°C
Wind Press
QNH
hPa
Press
MSL
hPa
Rain
since 9 am
mm
Dir
 
Spd
km/h
Gust
km/h
Spd
kts
Gust
kts
06/11:30pm 12.6 8.8 7.5 71 2.6 SSW 17 20 9 11 1013.2 1009.7 0.0
06/11:00pm 12.9 8.7 7.4 69 2.8 SW 19 32 10 17 1013.1 1009.6 0.0
06/10:30pm 13.5 9.1 7.5 67 3.1 SSW 20 32 11 17 1013.1 1009.6 0.0
06/10:00pm 13.7 8.1 7.2 65 3.3 SW 26 35 14 19 1013.1 1009.6 0.0
06/09:30pm 13.9 9.0 6.7 62 3.7 SW 22 28 12 15 1013.1 1009.6 0.0
06/09:00pm 14.2 9.6 6.6 60 3.9 SW 20 28 11 15 1012.9 1009.4 0.0
06/08:30pm 14.0 9.8 5.9 58 4.1 SW 17 24 9 13 1012.5 1008.9 0.0
06/08:00pm 14.7 10.5 5.5 54 4.6 SW 17 26 9 14 1012.2 1008.7 0.0
06/07:30pm 15.3 11.6 4.7 49 5.2 SSW 13 19 7 10 1011.9 1008.3 0.0
06/07:00pm 17.0 11.7 5.0 45 6.0 SW 22 30 12 16 1011.5 1007.9 0.0
06/06:30pm 17.9 11.7 4.5 41 6.7 SW 26 39 14 21 1011.4 1007.8 0.0
06/06:00pm 19.0 12.6 3.2 35 7.8 WSW 26 35 14 19 1011.3 1007.7 0.0
06/05:30pm 19.4 12.1 2.3 32 8.3 WSW 30 41 16 22 1010.9 1007.3 0.0
06/05:00pm 19.8 12.4 1.7 30 8.7 WSW 30 43 16 23 1011.0 1007.5 0.0
06/04:30pm 20.1 13.0 1.5 29 8.9 WSW 28 39 15 21 1011.1 1007.6 0.0
06/04:00pm 19.9 12.4 0.9 28 9.0 WSW 30 43 16 23 1011.0 1007.5 0.0
06/03:32pm 20.0 11.8 0.5 27 9.2 WSW 33 54 18 29 1011.1 1007.6 0.0
06/03:30pm 20.5 12.6 0.9 27 9.3 WSW 32 46 17 25 1011.1 1007.6 0.0
06/03:00pm 19.8 11.1 -0.8 25 9.4 WSW 35 48 19 26 1011.3 1007.7 0.0
06/02:30pm 19.8 11.4 -0.8 25 9.4 WSW 33 46 18 25 1011.7 1008.1 0.0
06/02:00pm 18.9 10.2 -0.5 27 8.9 WSW 35 48 19 26 1012.0 1008.5 0.0
06/01:30pm 18.7 10.9 1.7 32 8.1 WSW 32 44 17 24 1012.2 1008.7 0.0
06/01:16pm 18.0 9.9 -0.3 29 8.3 SW 32 50 17 27 1012.4 1008.8 0.0
06/01:00pm 18.1 10.5 0.7 31 8.1 SW 30 43 16 23 1012.6 1009.0 0.0
06/12:30pm 17.6 9.8 -0.6 29 8.2 WSW 30 43 16 23 1012.7 1009.1 0.0
06/12:00pm 16.6 9.6 -0.6 31 7.7 WSW 26 35 14 19 1013.3 1009.8 0.0
06/11:30am 15.6 9.0 -0.2 34 7.1 SW 24 33 13 18 1013.6 1010.0 0.0
06/11:00am 15.7 8.3 -0.5 33 7.2 SW 28 44 15 24 1013.3 1009.8 0.0
06/10:30am 14.6 7.8 0.5 38 6.3 SW 26 41 14 22 1013.3 1009.8 0.0
06/10:00am 13.1 5.9 0.5 42 5.6 SW 28 39 15 21 1013.4 1009.9 0.0
06/09:30am 13.0 6.6 1.0 44 5.4 SW 24 41 13 22 1013.0 1009.5 0.0
06/09:00am 11.7 5.6 0.2 45 5.0 SW 22 32 12 17 1012.8 1009.2 0.0
06/08:30am 11.0 6.2 0.1 47 4.7 SW 15 22 8 12 1012.8 1009.2 0.0
06/08:00am 9.9 6.2 0.0 50 4.2 SW 9 13 5 7 1013.0 1009.5 0.0
06/07:30am 8.4 3.9 -0.6 53 3.7 SSW 13 22 7 12 1012.8 1009.2 0.0
06/07:00am 7.4 3.5 -1.8 52 3.7 SSW 9 13 5 7 1012.6 1009.0 0.0
06/06:30am 7.2 2.4 -2.2 51 3.7 SW 13 17 7 9 1012.5 1008.9 0.0
06/06:00am 8.2 2.7 -1.9 49 4.1 SW 17 20 9 11 1012.4 1008.8 0.0
06/05:30am 7.9 3.2 -1.6 51 3.8 SW 13 20 7 11 1012.6 1009.0 0.0
06/05:00am 6.6 2.6 -2.0 54 3.4 SW 9 13 5 7 1012.8 1009.2 0.0
06/04:30am 6.8 2.4 -2.1 53 3.5 SW 11 15 6 8 1013.1 1009.6 0.0
06/04:00am 5.9 1.6 -1.7 58 3.0 SW 11 15 6 8 1013.2 1009.7 0.0
06/03:30am 4.8 0.5 -1.6 63 2.5 WSW 11 11 6 6 1013.6 1010.0 0.0
06/03:00am 7.0 3.1 -1.7 54 3.5 WSW 9 11 5 6 1013.9 1010.4 0.0
06/02:30am 6.1 1.8 -2.0 56 3.2 W 11 13 6 7 1014.3 1010.8 0.0
06/02:00am 7.6 2.1 -2.4 49 3.9 WSW 17 22 9 12 1014.5 1011.0 0.0
06/01:30am 9.8 1.7 -2.8 41 5.0 SW 30 35 16 19 1014.5 1011.0 0.0
06/01:00am 9.1 3.0 -2.5 44 4.6 SW 20 28 11 15 1015.2 1011.7 0.0
06/12:30am 9.5 4.3 -2.4 43 4.8 SW 15 20 8 11 1015.4 1011.9 0.0
06/12:00am 9.8 3.9 -2.2 43 4.9 SW 19 26 10 14 1015.4 1011.9 0.0
 
Date/Time
EDT
Temp
°C
App
Temp
°C
Dew
Point
Rel
Hum
%
Delta-T
°C
Wind Press
QNH
hPa
Press
MSL
hPa
Rain
since 9 am
mm
Dir
 
Spd
km/h
Gust
km/h
Spd
kts
Gust
kts
05/11:30pm 9.1 5.1 -2.2 45 4.5 SSW 9 13 5 7 1015.7 1012.3 0.0
05/11:00pm 10.3 5.5 -2.4 41 5.1 SSW 13 17 7 9 1015.7 1012.3 0.0
05/10:30pm 11.3 5.4 -2.5 38 5.6 SSW 19 24 10 13 1015.6 1012.1 0.0
05/10:00pm 11.4 6.2 -2.8 37 5.8 SW 15 20 8 11 1015.4 1011.9 0.0
05/09:30pm 11.5 7.1 -2.7 37 5.8 SSW 11 17 6 9 1015.0 1011.5 0.0
05/09:00pm 12.5 7.7 -2.9 34 6.3 SSW 13 20 7 11 1014.5 1011.0 0.0
05/08:30pm 13.2 7.2 -3.1 32 6.7 SW 19 28 10 15 1014.1 1010.6 0.0
05/08:00pm 13.2 7.2 -3.1 32 6.7 SW 19 24 10 13 1013.8 1010.2 0.0
05/07:30pm 14.4 8.7 -3.4 29 7.3 SW 17 22 9 12 1013.7 1010.1 0.0
05/07:00pm 16.2 9.9 -3.8 25 8.3 SW 20 28 11 15 1013.4 1009.9 0.0
05/06:30pm 17.5 10.8 -3.8 23 9.0 SW 22 32 12 17 1013.2 1009.7 0.0
05/06:00pm 18.0 10.3 -6.6 18 9.8 SSW 26 35 14 19 1013.0 1009.5 0.0
05/05:30pm 18.8 10.0 -6.0 18 10.1 WSW 32 41 17 22 1012.8 1009.2 0.0
05/05:00pm 19.4 11.9 -4.8 19 10.2 SW 26 37 14 20 1012.7 1009.1 0.0
05/04:30pm 19.7 12.6 -1.4 24 9.5 SW 26 39 14 21 1012.7 1009.1 0.0
05/04:00pm 19.6 11.3 2.0 31 8.5 WSW 35 50 19 27 1012.8 1009.2 0.0
05/03:50pm 19.5 12.0 3.2 34 8.0 SW 32 46 17 25 1012.7 1009.1 0.0
05/03:43pm 19.3 12.0 2.2 32 8.3 SW 30 46 16 25 1012.8 1009.2 0.0
05/03:30pm 19.6 12.5 3.7 35 7.9 SW 30 43 16 23 1012.8 1009.2 0.0
05/03:00pm 19.2 12.7 4.9 39 7.3 WSW 28 41 15 22 1012.9 1009.4 0.0
05/02:30pm 19.2 11.9 4.6 38 7.4 SW 32 44 17 24 1013.0 1009.5 0.0
05/02:10pm 18.8 12.7 6.6 45 6.4 SW 28 46 15 25 1013.0 1009.5 0.0
05/02:00pm 18.2 12.0 6.1 45 6.3 SW 28 43 15 23 1013.2 1009.7 0.0
05/01:30pm 18.6 11.5 6.4 45 6.4 WSW 33 43 18 23 1013.3 1009.8 0.0
05/01:00pm 17.3 10.4 7.4 52 5.2 SW 33 50 18 27 1013.7 1010.1 0.0
05/12:40pm 17.9 10.7 7.6 51 5.5 SW 35 56 19 30 1013.6 1010.0 0.0
05/12:30pm 17.1 9.4 7.2 52 5.2 SW 37 50 20 27 1013.7 1010.1 0.0
05/12:00pm 17.1 9.2 8.0 55 4.9 SW 39 50 21 27 1013.9 1010.4 0.0
05/11:44am 16.3 9.5 7.8 57 4.5 SW 33 52 18 28 1013.8 1010.2 0.0
05/11:30am 15.7 7.7 7.5 58 4.3 SW 39 50 21 27 1013.9 1010.4 0.0
05/11:09am 16.5 9.7 9.2 62 4.0 SW 35 54 19 29 1014.0 1010.5 0.0
05/11:00am 15.3 7.5 8.1 62 3.8 SW 39 54 21 29 1014.0 1010.5 0.0
05/10:45am 15.0 7.4 7.5 61 3.9 WSW 37 59 20 32 1013.9 1010.4 0.0
05/10:30am 14.9 7.7 7.7 62 3.8 SW 35 50 19 27 1013.8 1010.2 0.0
05/10:06am 14.7 6.7 7.5 62 3.7 SW 39 57 21 31 1013.6 1010.0 0.0
05/10:00am 14.4 5.6 7.2 62 3.7 SW 43 57 23 31 1013.6 1010.0 0.0
05/09:30am 14.1 5.5 6.5 60 3.9 WSW 41 50 22 27 1013.2 1009.7 0.0
05/09:00am 13.8 7.0 6.9 63 3.5 SW 32 41 17 22 1012.8 1009.2 0.0
05/08:30am 13.8 7.0 7.1 64 3.4 SW 32 41 17 22 1012.8 1009.2 0.0
05/08:00am 13.2 7.7 6.1 62 3.6 SW 24 32 13 17 1012.5 1008.9 0.0
05/07:30am 12.6 7.0 5.5 62 3.5 SW 24 39 13 21 1012.5 1008.9 0.0
05/07:00am 12.4 6.1 3.9 56 4.0 SW 26 33 14 18 1012.2 1008.7 0.0
05/06:30am 12.5 7.1 2.7 51 4.5 SW 20 32 11 17 1012.0 1008.5 0.0
05/06:00am 13.2 6.4 0.9 43 5.5 SW 26 35 14 19 1011.9 1008.3 0.0
05/05:30am 13.5 7.0 0.5 41 5.8 SW 24 35 13 19 1011.7 1008.1 0.0
05/05:00am 13.9 7.4 0.5 40 6.0 SW 24 30 13 16 1011.7 1008.1 0.0
05/04:30am 13.9 8.4 0.9 41 5.9 WSW 19 28 10 15 1011.8 1008.2 0.0
05/04:00am 14.2 9.0 0.1 38 6.3 SW 17 20 9 11 1012.0 1008.5 0.0
05/03:30am 15.3 9.5 -0.4 34 7.0 SW 20 28 11 15 1012.4 1008.8 0.0
05/03:00am 15.6 9.7 -0.6 33 7.2 SW 20 24 11 13 1012.5 1008.9 0.0
05/02:30am 16.2 10.3 -0.5 32 7.5 SW 20 28 11 15 1012.8 1009.2 0.0
05/02:00am 15.8 10.6 0.0 34 7.1 SW 17 20 9 11 1013.2 1009.7 0.0
05/01:30am 16.3 10.8 0.4 34 7.2 SW 19 22 10 12 1013.6 1010.0 0.0
05/01:00am 15.9 10.8 0.9 36 6.9 SW 17 20 9 11 1014.0 1010.5 0.0
05/12:30am 16.4 11.4 1.3 36 7.0 SW 17 20 9 11 1014.1 1010.6 0.0
05/12:00am 16.3 11.5 2.7 40 6.5 SW 17 20 9 11 1014.3 1010.8 0.0
 
Date/Time
EDT
Temp
°C
App
Temp
°C
Dew
Point
Rel
Hum
%
Delta-T
°C
Wind Press
QNH
hPa
Press
MSL
hPa
Rain
since 9 am
mm
Dir
 
Spd
km/h
Gust
km/h
Spd
kts
Gust
kts
04/11:30pm 16.5 12.8 2.5 39 6.7 SW 11 13 6 7 1014.4 1010.9 0.0
04/11:00pm 18.1 13.7 2.8 36 7.4 SW 15 20 8 11 1014.7 1011.1 0.0
04/10:30pm 18.6 13.9 3.3 36 7.5 SW 17 22 9 12 1014.9 1011.4 0.0
04/10:00pm 17.9 13.8 4.1 40 6.9 SW 15 17 8 9 1015.0 1011.5 0.0
04/09:30pm 19.0 14.8 4.0 37 7.5 SW 15 20 8 11 1014.9 1011.4 0.0
04/09:00pm 19.0 15.0 4.7 39 7.2 SW 15 17 8 9 1014.7 1011.1 0.0
04/08:30pm 18.9 15.4 5.4 41 6.9 WSW 13 17 7 9 1014.3 1010.8 0.0
04/08:00pm 20.6 17.0 5.0 36 8.0 WSW 13 17 7 9 1014.1 1010.6 0.0
04/07:30pm 22.0 18.0 5.0 33 8.8 WSW 15 19 8 10 1014.0 1010.5 0.0
04/07:00pm 24.7 20.5 5.5 29 10.2 WSW 17 20 9 11 1013.8 1010.2 0.0
04/06:30pm 26.0 21.4 5.6 27 11.0 WSW 19 24 10 13 1013.7 1010.1 0.0
04/06:00pm 27.0 22.9 6.4 27 11.3 WSW 17 24 9 13 1013.6 1010.0 0.0
04/05:30pm 27.2 22.7 4.3 23 12.1 SW 17 24 9 13 1013.7 1010.1 0.0
04/05:00pm 28.0 23.8 5.6 24 12.2 WSW 17 30 9 16 1013.8 1010.2 0.0
04/04:30pm 27.7 23.7 6.5 26 11.7 SW 17 28 9 15 1014.0 1010.5 0.0
04/04:00pm 27.3 24.4 6.7 27 11.4 SW 11 20 6 11 1014.3 1010.8 0.0
04/03:30pm 27.4 22.9 6.2 26 11.6 SW 19 32 10 17 1014.7 1011.1 0.0
04/03:00pm 27.2 22.8 6.6 27 11.3 WSW 19 32 10 17 1015.0 1011.5 0.0
04/02:30pm 26.6 22.9 8.1 31 10.4 SW 17 28 9 15 1015.2 1011.7 0.0
04/02:00pm 26.4 22.5 8.8 33 10.0 WSW 19 28 10 15 1015.6 1012.1 0.0
04/01:30pm 26.3 23.3 9.2 34 9.8 SSW 15 24 8 13 1015.7 1012.3 0.0
04/01:00pm 26.6 23.3 9.5 34 9.8 W 17 24 9 13 1016.0 1012.5 0.0
04/12:30pm 25.1 22.4 9.0 36 9.1 SW 13 24 7 13 1016.3 1012.8 0.0
04/12:00pm 24.7 21.7 9.4 38 8.7 SSW 15 20 8 11 1016.8 1013.4 0.0
04/11:30am 24.9 22.4 11.1 42 8.1 SSW 15 22 8 12 1017.4 1013.9 0.0
04/11:00am 24.2 21.8 11.5 45 7.5 SW 15 22 8 12 1017.5 1014.0 0.0
04/10:30am 24.0 22.8 14.1 54 6.1 SW 13 28 7 15 1017.3 1013.8 0.0
04/10:00am 23.0 21.7 12.6 52 6.2 SSW 11 17 6 9 1017.2 1013.7 0.0
04/09:30am 21.3 22.4 16.7 75 2.9 WSW 6 9 3 5 1017.3 1013.8 0.0
04/09:00am 20.3 21.9 16.9 81 2.1 NW 4 9 2 5 1017.1 1013.6 0.0

Other Formats:

Comma delimited format used in spreadsheet applications
http://www.bom.gov.au/fwo/IDN60801/IDN60801.95726.axf

JavaScript Object Notation format (JSON) in row-major order
http://www.bom.gov.au/fwo/IDN60801/IDN60801.95726.json